Gladstone, ND (58630)

2:49 PM MST on February 07, 2016 (GMT -0700)
Southview | | Change Station
CLOSE
Current Station
Personal Weather Station
Location: Dickinson, ND
Elevation: 2434 ft
Nearby Weather Stations
Active Advisory: High Wind Warning Active Notice: Public Information Statement

Elev 2434 ft 46.86 °N, 102.78 °W | Updated 2 minutes ago

Partly Cloudy
Partly Cloudy
35.2 °F
Feels Like 26 °F
N
13.5
Wind Variable Wind from WNW

Today
High -- | Low -- °F
--% Chance of Precip.
Yesterday
High -- | Low -- °F
Precip. -- in
Pressure 30.16 in
Visibility 10.0 miles
Clouds Scattered Clouds 5500 ft
Windchill 26 °F
Dew Point 15 °F
Humidity 43%
Rainfall 1.28 in
Snow Depth Not available.
7:07 AM 5:02 PM
Waning Crescent, 1% visible
METAR KDIK 072056Z AUTO 33032G43KT 10SM SCT055 02/M12 A3009 RMK AO2 PK WND 31044/2007 SLP213 T00171117 51013
Pressure 30.16 in
Visibility 10.0 miles
Clouds Scattered Clouds 5500 ft
Windchill 26 °F
Dew Point 15 °F
Humidity 43%
Rainfall 1.28 in
Snow Depth Not available.
7:07 AM 5:02 PM
Waning Crescent, 1% visible
METAR KDIK 072056Z AUTO 33032G43KT 10SM SCT055 02/M12 A3009 RMK AO2 PK WND 31044/2007 SLP213 T00171117 51013

10-Day Weather Forecast

Almanac

Astronomy

Feb. 07, 2016 Rise Set
Actual Time
Civil Twilight
Nautical Twilight
Astronomical Twilight
Moon
Length of Visible Light
Length of Day
Tomorrow will be .
, % of the Moon is Illuminated

Today's Extremes

State Highs State Lows

Community

WunderPhotos

Upload Photos

1,891,304 photos uploaded!

WunderBlog® & News

Nearby

Air Quality

  Air Quality AQ Index Pollutant
Not available.

Snow Depth

Station Depth Elevation

Earthquake Activity

City Distance Mag. Time & Date
Minimum magnitude displayed is 2.5.

Coastal Water Temperatures

Place Temperature

Stations

Nearby Weather Stations

Station Location Temp. Windchill Dew Point Humidity Wind Precip. Elev Updated Type
                   

Watches & Warnings

High Wind Warning
Issued: 1:44 PM MST Feb. 7, 2016 – National Weather Service

... High Wind Warning remains in effect until 9 PM CST /8 PM MST/
this evening...

* timing... through early this evening.

* Winds... northwest winds gusting up to 65 mph... gradually
diminishing early this evening.

* Impacts... travel will be hazardous over western North Dakota.

Precautionary/preparedness actions...

A High Wind Warning means a hazardous high wind event is expected
or occurring. Sustained wind speeds of at least 40 mph or gusts
of 58 mph or more can lead to property damage.